Impacts METAR Board INFO
IDs:

KAXN - Alexandria/Chandler, MN, US

Updated at: 0248 UTC 21 Jan 2018
Potential Impact None Slight Moderate High
Time20/14Z 20/15Z 20/16Z 20/17Z 20/18Z 20/19Z 20/20Z 20/21Z 20/22Z 20/23Z 21/00Z 21/01Z 21/02Z
VIS10 10 10 10 10 10 10 10 10 10 10 10 10
CIG100 110 95 95 95 -- 95 -- -- -- -- -- --
CoverOVCOVCOVCOVCOVCSCTOVCCLRFEWCLRCLRCLRCLR
FltCatVFRVFRVFRVFRVFRVFRVFRVFRVFRVFRVFRVFRVFR
WX--------------------------
WDir230260280280300290270270260280280240280
WSpd3 5 5 9 6 9 6 8 9 5 4 5 3
WGst-- -- -- -- -- -- -- -- -- -- -- -- --
Raw hourly METARs
KAXN 201353Z AUTO 23003KT 10SM OVC100 M02/M03 A2980 RMK AO2 SLP109 T10221028
KAXN 201453Z AUTO 26005KT 10SM OVC110 M01/M03 A2983 RMK AO2 SLP119 T10111028 53017
KAXN 201553Z AUTO 28005KT 10SM BKN095 OVC110 00/M02 A2985 RMK AO2 SLP126 T00001017
KAXN 201653Z AUTO 28009KT 10SM OVC095 01/M02 A2986 RMK AO2 SLP130 T00111017
KAXN 201753Z AUTO 30006KT 10SM SCT075 OVC095 02/M02 A2984 RMK AO2 SLP124 T00171017 10017 21033 50004
KAXN 201853Z AUTO 29009KT 10SM SCT110 04/M02 A2983 RMK AO2 SLP119 T00441017
KAXN 201953Z AUTO 27006KT 10SM OVC095 05/M02 A2985 RMK AO2 SLP125 T00501017
KAXN 202053Z AUTO 27008KT 10SM CLR 05/M02 A2986 RMK AO2 SLP128 T00501017 53006
KAXN 202153Z AUTO 26009KT 10SM FEW120 04/M01 A2988 RMK AO2 SLP137 T00441011
KAXN 202253Z AUTO 28005KT 10SM CLR 03/M01 A2989 RMK AO2 SLP139 T00281011
KAXN 202353Z AUTO 28004KT 10SM CLR 01/M02 A2990 RMK AO2 SLP144 T00061017 10056 20006 51012
KAXN 210053Z AUTO 24005KT 10SM CLR M01/M02 A2991 RMK AO2 SLP146 T10061022
KAXN 210153Z AUTO 28003KT 10SM CLR 00/M02 A2990 RMK AO2 SLP145 T00001017